createdAt,value
2023-09-14T00:01:42.374Z,12.50
2023-09-14T00:04:09.333Z,12.50
2023-09-14T00:06:36.284Z,12.50
2023-09-14T00:09:05.377Z,12.40
2023-09-14T00:11:32.203Z,12.30
2023-09-14T00:13:58.996Z,12.30
2023-09-14T00:16:25.841Z,12.30
2023-09-14T00:18:52.697Z,12.20
2023-09-14T00:21:19.475Z,12.20
2023-09-14T00:23:46.386Z,12.20
2023-09-14T00:26:15.608Z,12.20
2023-09-14T00:28:48.072Z,12.20
2023-09-14T00:31:15.637Z,12.10
2023-09-14T00:33:42.418Z,12.10
2023-09-14T00:36:09.558Z,12.10
2023-09-14T00:38:36.215Z,12.00
2023-09-14T00:41:03.079Z,12.00
2023-09-14T00:43:30.401Z,11.90
2023-09-14T00:45:57.231Z,11.90
2023-09-14T00:48:23.939Z,11.90
2023-09-14T00:50:51.238Z,11.90
2023-09-14T00:53:19.953Z,11.90
2023-09-14T00:55:47.229Z,11.80
2023-09-14T00:58:16.211Z,11.80
2023-09-14T01:00:44.747Z,11.80
2023-09-14T01:03:14.201Z,11.80
2023-09-14T01:05:41.618Z,11.80
2023-09-14T01:08:08.542Z,11.70
2023-09-14T01:10:35.351Z,11.70
2023-09-14T01:13:02.591Z,11.60
2023-09-14T01:15:33.110Z,11.60
2023-09-14T01:18:11.571Z,11.60
2023-09-14T01:21:09.993Z,11.60
2023-09-14T01:23:43.039Z,11.60
2023-09-14T01:26:11.433Z,11.60
2023-09-14T01:28:38.650Z,11.50
2023-09-14T01:31:06.202Z,11.50
2023-09-14T01:33:33.749Z,11.50
2023-09-14T01:36:06.118Z,11.50
2023-09-14T01:38:34.134Z,11.50
2023-09-14T01:41:02.773Z,11.50
2023-09-14T01:43:31.155Z,11.50
2023-09-14T01:45:58.046Z,11.40
2023-09-14T01:48:24.744Z,11.40
2023-09-14T01:50:51.760Z,11.40
2023-09-14T01:53:18.674Z,11.30
2023-09-14T01:55:45.580Z,11.30
2023-09-14T01:58:13.160Z,11.30
2023-09-14T02:00:40.710Z,11.30
2023-09-14T02:03:08.194Z,11.30
2023-09-14T02:05:36.002Z,11.30
2023-09-14T02:08:02.901Z,11.20
2023-09-14T02:10:29.535Z,11.30
2023-09-14T02:12:57.113Z,11.20
2023-09-14T02:15:24.594Z,11.20
2023-09-14T02:17:52.287Z,11.20
2023-09-14T02:20:19.176Z,11.10
2023-09-14T02:22:46.745Z,11.20
2023-09-14T02:25:13.555Z,11.10
2023-09-14T02:27:40.326Z,11.10
2023-09-14T02:30:08.677Z,11.10
2023-09-14T02:32:35.336Z,11.10
2023-09-14T02:35:03.050Z,11.00
2023-09-14T02:37:29.722Z,11.00
2023-09-14T02:39:58.163Z,11.00
2023-09-14T02:42:24.976Z,11.00
2023-09-14T02:44:51.976Z,11.00
2023-09-14T02:47:18.640Z,11.00
2023-09-14T02:49:45.246Z,11.00
2023-09-14T02:52:13.092Z,10.90
2023-09-14T02:54:40.575Z,10.90
2023-09-14T02:57:08.206Z,10.90
2023-09-14T02:59:35.349Z,10.90
2023-09-14T03:02:03.268Z,10.90
2023-09-14T03:04:30.407Z,10.80
2023-09-14T03:06:57.507Z,10.90
2023-09-14T03:09:25.590Z,10.90
2023-09-14T03:11:53.032Z,10.90
2023-09-14T03:14:19.842Z,10.90
2023-09-14T03:16:47.074Z,10.90
2023-09-14T03:19:13.883Z,10.90
2023-09-14T03:21:41.307Z,10.80
2023-09-14T03:24:08.211Z,10.90
2023-09-14T03:26:35.630Z,10.80
2023-09-14T03:29:02.415Z,10.80
2023-09-14T03:31:29.866Z,10.80
2023-09-14T03:33:56.657Z,10.80
2023-09-14T03:36:24.567Z,10.70
2023-09-14T03:38:51.978Z,10.70
2023-09-14T03:41:23.582Z,10.70
2023-09-14T03:43:52.799Z,10.70
2023-09-14T03:46:19.664Z,10.70
2023-09-14T03:48:46.990Z,10.70
2023-09-14T03:51:13.881Z,10.70
2023-09-14T03:53:41.687Z,10.70
2023-09-14T03:56:09.131Z,10.70
2023-09-14T03:58:36.708Z,10.60
2023-09-14T04:01:04.456Z,10.60
2023-09-14T04:03:31.760Z,10.60
2023-09-14T04:05:58.667Z,10.60
2023-09-14T04:08:26.980Z,10.60
2023-09-14T04:10:54.588Z,10.60
2023-09-14T04:13:32.559Z,10.60
2023-09-14T04:16:12.666Z,10.50
2023-09-14T04:18:42.269Z,10.50
2023-09-14T04:21:09.489Z,10.50
2023-09-14T04:23:37.132Z,10.40
2023-09-14T04:26:06.627Z,10.40
2023-09-14T04:28:34.418Z,10.30
2023-09-14T04:31:03.147Z,10.30
2023-09-14T04:33:33.582Z,10.30
2023-09-14T04:36:02.444Z,10.30
2023-09-14T04:38:30.259Z,10.30
2023-09-14T04:40:57.658Z,10.20
2023-09-14T04:43:25.142Z,10.20
2023-09-14T04:45:51.888Z,10.20
2023-09-14T04:48:18.599Z,10.20
2023-09-14T04:50:46.837Z,10.20
2023-09-14T04:53:13.760Z,10.20
2023-09-14T04:55:40.608Z,10.20
2023-09-14T04:58:07.760Z,10.20
2023-09-14T05:00:37.465Z,10.20
2023-09-14T05:03:05.644Z,10.20
2023-09-14T05:05:32.865Z,10.10
2023-09-14T05:08:00.652Z,10.10
2023-09-14T05:10:28.058Z,10.10
2023-09-14T05:12:55.295Z,10.10
2023-09-14T05:15:23.027Z,10.10
2023-09-14T05:17:50.876Z,10.10
2023-09-14T05:20:18.080Z,10.10
2023-09-14T05:22:45.513Z,10.20
2023-09-14T05:25:13.185Z,10.10
2023-09-14T05:27:42.034Z,10.20
2023-09-14T05:30:10.434Z,10.20
2023-09-14T05:32:37.284Z,10.20
2023-09-14T05:35:06.995Z,10.20
2023-09-14T05:37:33.806Z,10.20
2023-09-14T05:40:00.735Z,10.20
2023-09-14T05:42:28.391Z,10.20
2023-09-14T05:44:55.120Z,10.20
2023-09-14T05:47:22.064Z,10.20
2023-09-14T05:49:48.637Z,10.20
2023-09-14T05:52:16.641Z,10.30
2023-09-14T05:54:43.214Z,10.30
2023-09-14T05:57:10.373Z,10.40
2023-09-14T05:59:37.963Z,10.40
2023-09-14T06:02:07.152Z,10.50
2023-09-14T06:04:33.876Z,10.60
2023-09-14T06:07:00.736Z,10.70
2023-09-14T06:09:30.288Z,10.80
2023-09-14T06:11:57.021Z,11.00
2023-09-14T06:14:28.103Z,11.10
2023-09-14T06:17:01.774Z,11.20
2023-09-14T06:19:29.720Z,11.40
2023-09-14T06:21:59.791Z,11.60
2023-09-14T06:24:28.250Z,11.80
2023-09-14T06:26:55.759Z,11.90
2023-09-14T06:29:22.428Z,12.10
2023-09-14T06:31:50.308Z,12.20
2023-09-14T06:34:17.806Z,12.40
2023-09-14T06:36:44.554Z,12.60
2023-09-14T06:39:12.761Z,12.70
2023-09-14T06:41:39.427Z,12.90
2023-09-14T06:44:06.427Z,13.10
2023-09-14T06:46:33.181Z,13.30
2023-09-14T06:49:00.004Z,13.50
2023-09-14T06:51:28.937Z,13.60
2023-09-14T06:53:55.632Z,13.80
2023-09-14T06:56:22.374Z,14.00
2023-09-14T06:58:49.108Z,14.10
2023-09-14T07:01:17.159Z,14.20
2023-09-14T07:03:44.038Z,14.20
2023-09-14T07:06:10.830Z,14.30
2023-09-14T07:08:42.578Z,14.30
2023-09-14T07:11:11.441Z,14.30
2023-09-14T07:13:38.298Z,14.30
2023-09-14T07:16:05.267Z,14.30
2023-09-14T07:18:34.864Z,14.40
2023-09-14T07:21:04.527Z,14.40
2023-09-14T07:23:31.590Z,14.50
2023-09-14T07:25:59.229Z,14.60
2023-09-14T07:28:25.937Z,14.60
2023-09-14T07:30:53.409Z,14.60
2023-09-14T07:35:55.106Z,14.80
2023-09-14T07:38:24.928Z,14.90
2023-09-14T07:40:52.729Z,15.10
2023-09-14T07:43:29.248Z,15.30
2023-09-14T07:45:56.200Z,15.30
2023-09-14T07:48:23.173Z,15.50
2023-09-14T07:50:53.208Z,15.50
2023-09-14T07:53:23.583Z,15.70
2023-09-14T07:58:28.815Z,16.10
2023-09-14T08:00:57.559Z,16.30
2023-09-14T08:03:25.981Z,16.50
2023-09-14T08:05:53.121Z,16.60
2023-09-14T08:08:20.046Z,16.60
2023-09-14T08:10:49.777Z,16.60
2023-09-14T08:13:16.677Z,16.70
2023-09-14T08:15:44.127Z,16.60
2023-09-14T08:18:10.952Z,16.30
2023-09-14T08:20:38.345Z,16.20
2023-09-14T08:23:05.032Z,16.20
2023-09-14T08:25:31.684Z,16.30
2023-09-14T08:27:58.451Z,16.50
2023-09-14T08:30:25.149Z,16.70
2023-09-14T08:32:52.848Z,17.00
2023-09-14T08:35:24.342Z,17.30
2023-09-14T08:37:52.486Z,17.60
2023-09-14T08:40:19.604Z,17.80
2023-09-14T08:42:49.843Z,18.00
2023-09-14T08:45:20.264Z,18.20
2023-09-14T08:47:48.530Z,18.20
2023-09-14T08:50:18.802Z,18.20
2023-09-14T08:52:46.161Z,18.20
2023-09-14T08:55:16.570Z,18.10
2023-09-14T08:57:45.442Z,18.20
2023-09-14T09:00:16.058Z,18.50
2023-09-14T09:02:47.951Z,18.80
2023-09-14T09:05:16.570Z,18.90
2023-09-14T09:07:45.649Z,19.00
2023-09-14T09:10:20.065Z,18.90
2023-09-14T09:12:46.929Z,19.10
2023-09-14T09:15:15.714Z,19.20
2023-09-14T09:17:44.517Z,19.40
2023-09-14T09:20:17.045Z,19.50
2023-09-14T09:22:44.647Z,19.70
2023-09-14T09:25:12.102Z,19.70
2023-09-14T09:27:39.774Z,19.80
2023-09-14T09:30:09.200Z,20.00
2023-09-14T09:32:37.481Z,20.00
2023-09-14T09:35:17.676Z,20.10
2023-09-14T09:37:46.864Z,20.20
2023-09-14T09:40:18.199Z,20.30
2023-09-14T09:42:45.420Z,20.30
2023-09-14T09:45:13.384Z,20.40
2023-09-14T09:47:44.137Z,20.50
2023-09-14T09:50:14.967Z,20.80
2023-09-14T09:52:43.615Z,20.90
2023-09-14T09:55:17.744Z,21.00
2023-09-14T09:57:50.327Z,20.80
2023-09-14T10:00:19.963Z,20.90
2023-09-14T10:02:47.463Z,21.10
2023-09-14T10:05:14.490Z,21.40
2023-09-14T10:07:42.250Z,21.30
2023-09-14T10:10:10.213Z,21.40
2023-09-14T10:12:39.590Z,21.40
2023-09-14T10:15:07.382Z,21.50
2023-09-14T10:17:35.308Z,21.10
2023-09-14T10:20:06.295Z,20.60
2023-09-14T10:22:33.882Z,20.50
2023-09-14T10:25:01.317Z,20.50
2023-09-14T10:27:28.812Z,20.80
2023-09-14T10:29:57.032Z,20.70
2023-09-14T10:32:25.288Z,20.50
2023-09-14T10:35:05.497Z,20.70
2023-09-14T10:37:34.539Z,21.10
2023-09-14T10:40:03.103Z,21.50
2023-09-14T10:42:29.878Z,21.70
2023-09-14T10:44:57.480Z,21.80
2023-09-14T10:47:27.677Z,22.00
2023-09-14T10:49:55.710Z,21.90
2023-09-14T10:52:27.389Z,21.50
2023-09-14T10:54:54.611Z,21.00
2023-09-14T10:57:27.764Z,20.60
2023-09-14T10:59:55.505Z,20.40
2023-09-14T11:03:14.341Z,20.60
2023-09-14T11:05:47.553Z,21.20
2023-09-14T11:08:16.127Z,22.30
2023-09-14T11:10:54.466Z,22.80
2023-09-14T11:13:25.880Z,23.20
2023-09-14T11:15:59.044Z,23.30
2023-09-14T11:18:51.431Z,23.40
2023-09-14T11:21:46.115Z,23.00
2023-09-14T11:24:17.884Z,22.50
2023-09-14T11:26:53.225Z,22.60
2023-09-14T11:29:23.422Z,22.80
2023-09-14T11:32:01.443Z,22.80
2023-09-14T11:34:38.412Z,22.60
2023-09-14T11:37:08.726Z,22.50
2023-09-14T11:39:42.915Z,22.70
2023-09-14T11:42:15.566Z,23.10
2023-09-14T11:44:52.312Z,23.60
2023-09-14T11:47:21.833Z,24.00
2023-09-14T11:49:50.635Z,23.70
2023-09-14T11:52:20.224Z,23.30
2023-09-14T11:54:47.715Z,22.70
2023-09-14T11:57:14.827Z,22.10
2023-09-14T11:59:41.537Z,21.50
2023-09-14T12:04:47.498Z,21.10
2023-09-14T12:07:15.178Z,21.00
2023-09-14T12:09:45.286Z,20.80
2023-09-14T12:12:26.333Z,20.80
2023-09-14T12:17:35.345Z,21.40
2023-09-14T12:20:04.508Z,21.90
2023-09-14T12:22:33.063Z,22.10
2023-09-14T12:25:01.434Z,22.40
2023-09-14T12:27:28.869Z,22.60
2023-09-14T12:29:57.049Z,23.00
2023-09-14T12:32:23.998Z,23.50
2023-09-14T12:34:50.694Z,23.70
2023-09-14T12:37:18.545Z,23.90
2023-09-14T12:39:51.840Z,23.80
2023-09-14T12:42:20.483Z,23.40
2023-09-14T12:44:47.568Z,23.40
2023-09-14T12:47:14.859Z,23.00
2023-09-14T12:49:41.769Z,22.80
2023-09-14T12:52:08.811Z,22.70
2023-09-14T12:54:36.661Z,22.90
2023-09-14T12:57:11.427Z,22.70
2023-09-14T12:59:39.535Z,22.30
2023-09-14T13:02:06.831Z,22.00
2023-09-14T13:04:36.425Z,21.70
2023-09-14T13:07:04.629Z,22.10
2023-09-14T13:09:32.718Z,22.10
2023-09-14T13:12:01.541Z,21.90
2023-09-14T13:14:28.943Z,21.70
2023-09-14T13:16:58.087Z,21.50
2023-09-14T13:19:25.859Z,21.30
2023-09-14T13:21:53.098Z,21.10
2023-09-14T13:24:20.576Z,21.10
2023-09-14T13:26:47.317Z,21.60
2023-09-14T13:29:17.720Z,22.50
2023-09-14T13:31:46.611Z,23.10
2023-09-14T13:34:13.627Z,23.30
2023-09-14T13:36:40.338Z,23.60
2023-09-14T13:39:11.056Z,23.70
2023-09-14T13:41:38.356Z,23.80
2023-09-14T13:44:06.693Z,24.20
2023-09-14T13:46:34.260Z,23.70
2023-09-14T13:49:01.688Z,23.10
2023-09-14T13:51:28.500Z,23.20
2023-09-14T13:53:55.214Z,23.30
2023-09-14T13:56:21.895Z,23.70
2023-09-14T13:58:49.921Z,24.00
2023-09-14T14:01:19.318Z,24.10
2023-09-14T14:03:47.470Z,24.20
2023-09-14T14:06:15.644Z,24.30
2023-09-14T14:08:44.099Z,24.20
2023-09-14T14:11:10.996Z,24.40
2023-09-14T14:13:37.673Z,24.50
2023-09-14T14:16:05.983Z,24.20
2023-09-14T14:18:33.245Z,24.30
2023-09-14T14:21:00.007Z,24.70
2023-09-14T14:23:27.408Z,24.90
2023-09-14T14:25:54.193Z,24.90
2023-09-14T14:28:22.575Z,24.90
2023-09-14T14:30:49.429Z,24.70
2023-09-14T14:33:16.150Z,24.60
2023-09-14T14:35:42.893Z,24.40
2023-09-14T14:38:09.669Z,24.50
2023-09-14T14:43:06.674Z,24.90
2023-09-14T14:45:34.111Z,24.90
2023-09-14T14:48:00.904Z,25.00
2023-09-14T14:50:27.606Z,25.00
2023-09-14T14:52:55.031Z,25.00
2023-09-14T14:55:22.390Z,24.90
2023-09-14T14:57:49.895Z,24.60
2023-09-14T15:00:16.893Z,23.90
2023-09-14T15:02:43.682Z,23.50
2023-09-14T15:05:13.654Z,23.30
2023-09-14T15:07:43.681Z,23.50
2023-09-14T15:10:10.708Z,23.60
2023-09-14T15:12:37.450Z,23.80
2023-09-14T15:15:05.731Z,23.60
2023-09-14T15:17:33.376Z,23.20
2023-09-14T15:20:00.148Z,23.00
2023-09-14T15:22:26.929Z,22.80
2023-09-14T15:24:53.625Z,22.60
2023-09-14T15:27:20.725Z,22.50
2023-09-14T15:29:48.669Z,22.40
2023-09-14T15:32:16.061Z,22.40
2023-09-14T15:34:42.793Z,22.40
2023-09-14T15:37:09.524Z,22.40
2023-09-14T15:39:37.862Z,22.30
2023-09-14T15:42:04.952Z,22.30
2023-09-14T15:44:34.211Z,22.40
2023-09-14T15:47:01.516Z,22.50
2023-09-14T15:49:28.945Z,22.50
2023-09-14T15:51:59.593Z,22.50
2023-09-14T15:54:26.537Z,22.50
2023-09-14T15:56:53.419Z,22.60
2023-09-14T15:59:21.053Z,22.80
2023-09-14T16:01:54.494Z,23.00
2023-09-14T16:04:21.387Z,23.00
2023-09-14T16:06:49.645Z,22.70
2023-09-14T16:09:16.441Z,22.50
2023-09-14T16:11:44.213Z,22.20
2023-09-14T16:14:11.155Z,22.00
2023-09-14T16:16:38.094Z,21.80
2023-09-14T16:19:05.663Z,21.70
2023-09-14T16:21:32.444Z,21.80
2023-09-14T16:24:01.130Z,21.80
2023-09-14T16:26:27.859Z,21.70
2023-09-14T16:28:55.127Z,21.60
2023-09-14T16:31:23.543Z,21.60
2023-09-14T16:33:51.105Z,21.50
2023-09-14T16:36:17.925Z,21.40
2023-09-14T16:38:46.346Z,21.30
2023-09-14T16:41:15.164Z,21.20
2023-09-14T16:43:42.198Z,21.00
2023-09-14T16:46:09.247Z,20.70
2023-09-14T16:48:37.571Z,20.50
2023-09-14T16:51:04.466Z,20.20
2023-09-14T16:53:31.166Z,20.00
2023-09-14T16:55:57.956Z,19.80
2023-09-14T16:58:25.589Z,19.60
2023-09-14T17:03:30.321Z,19.30
2023-09-14T17:05:57.129Z,19.10
2023-09-14T17:08:23.934Z,19.00
2023-09-14T17:10:50.692Z,18.90
2023-09-14T17:13:18.672Z,18.70
2023-09-14T17:15:46.170Z,18.60
2023-09-14T17:18:14.434Z,18.50
2023-09-14T17:20:41.142Z,18.30
2023-09-14T17:23:09.624Z,18.20
2023-09-14T17:25:36.706Z,18.00
2023-09-14T17:28:03.857Z,17.80
2023-09-14T17:30:31.575Z,17.70
2023-09-14T17:32:58.989Z,17.70
2023-09-14T17:35:25.736Z,17.50
2023-09-14T17:37:52.396Z,17.30
2023-09-14T17:40:19.362Z,17.10
2023-09-14T17:42:46.151Z,16.90
2023-09-14T17:45:13.239Z,16.60
2023-09-14T17:47:41.780Z,16.40
2023-09-14T17:50:10.541Z,16.30
2023-09-14T17:52:37.289Z,16.10
2023-09-14T17:55:04.607Z,15.90
2023-09-14T17:57:31.390Z,15.70
2023-09-14T17:59:58.183Z,15.50
2023-09-14T18:02:28.899Z,15.30
2023-09-14T18:04:55.759Z,15.20
2023-09-14T18:07:23.218Z,15.00
2023-09-14T18:09:50.050Z,14.90
2023-09-14T18:12:16.808Z,14.70
2023-09-14T18:14:43.842Z,14.60
2023-09-14T18:17:10.589Z,14.50
2023-09-14T18:19:37.520Z,14.40
2023-09-14T18:22:05.064Z,14.30
2023-09-14T18:24:32.714Z,14.20
2023-09-14T18:26:59.496Z,14.00
2023-09-14T18:29:26.221Z,14.00
2023-09-14T18:31:54.418Z,13.80
2023-09-14T18:34:21.283Z,13.80
2023-09-14T18:36:49.211Z,13.70
2023-09-14T18:39:16.036Z,13.60
2023-09-14T18:41:44.224Z,13.50
2023-09-14T18:44:10.951Z,13.50
2023-09-14T18:46:37.782Z,13.40
2023-09-14T18:49:06.484Z,13.40
2023-09-14T18:51:33.316Z,13.30
2023-09-14T18:54:01.486Z,13.30
2023-09-14T18:56:28.292Z,13.20
2023-09-14T19:01:25.845Z,13.10
2023-09-14T19:03:53.352Z,13.10
2023-09-14T19:06:20.164Z,13.00
2023-09-14T19:08:48.344Z,12.90
2023-09-14T19:11:16.213Z,12.90
2023-09-14T19:13:43.044Z,12.80
2023-09-14T19:16:10.968Z,12.80
2023-09-14T19:18:37.800Z,12.70
2023-09-14T19:21:04.567Z,12.70
2023-09-14T19:23:31.335Z,12.60
2023-09-14T19:25:58.097Z,12.60
2023-09-14T19:28:25.338Z,12.60
2023-09-14T19:30:52.236Z,12.60
2023-09-14T19:33:20.072Z,12.60
2023-09-14T19:35:52.345Z,12.50
2023-09-14T19:38:19.160Z,12.60
2023-09-14T19:40:47.818Z,12.60
2023-09-14T19:43:14.563Z,12.50
2023-09-14T19:45:41.351Z,12.50
2023-09-14T19:48:08.186Z,12.50
2023-09-14T19:50:36.678Z,12.40
2023-09-14T19:53:03.578Z,12.40
2023-09-14T19:55:30.648Z,12.30
2023-09-14T19:57:57.392Z,12.30
2023-09-14T20:00:24.101Z,12.30
2023-09-14T20:02:50.822Z,12.20
2023-09-14T20:05:17.709Z,12.20
2023-09-14T20:07:46.809Z,12.20
2023-09-14T20:10:13.812Z,12.10
2023-09-14T20:12:40.694Z,12.10
2023-09-14T20:15:09.504Z,12.10
2023-09-14T20:17:36.231Z,12.00
2023-09-14T20:20:05.911Z,12.00
2023-09-14T20:22:33.080Z,12.00
2023-09-14T20:25:00.604Z,11.90
2023-09-14T20:27:27.767Z,11.90
2023-09-14T20:29:54.712Z,11.90
2023-09-14T20:32:21.433Z,11.90
2023-09-14T20:34:48.133Z,11.80
2023-09-14T20:37:14.872Z,11.70
2023-09-14T20:39:42.757Z,11.70
2023-09-14T20:42:12.862Z,11.70
2023-09-14T20:44:42.469Z,11.70
2023-09-14T20:47:11.197Z,11.70
2023-09-14T20:49:37.877Z,11.70
2023-09-14T20:52:04.595Z,11.60
2023-09-14T20:54:31.344Z,11.60
2023-09-14T20:56:58.091Z,11.60
2023-09-14T20:59:25.606Z,11.60
2023-09-14T21:01:53.278Z,11.50
2023-09-14T21:04:20.455Z,11.50
2023-09-14T21:06:47.220Z,11.40
2023-09-14T21:09:13.904Z,11.40
2023-09-14T21:11:41.780Z,11.40
2023-09-14T21:14:08.521Z,11.40
2023-09-14T21:16:36.455Z,11.30
2023-09-14T21:19:03.549Z,11.30
2023-09-14T21:21:30.604Z,11.30
2023-09-14T21:23:57.296Z,11.20
2023-09-14T21:26:24.151Z,11.30
2023-09-14T21:28:50.840Z,11.20
2023-09-14T21:31:17.610Z,11.20
2023-09-14T21:33:45.389Z,11.20
2023-09-14T21:36:12.269Z,11.10
2023-09-14T21:38:39.461Z,11.10
2023-09-14T21:41:06.722Z,11.10
2023-09-14T21:43:36.632Z,11.00
2023-09-14T21:46:04.466Z,11.00
2023-09-14T21:48:31.324Z,11.00
2023-09-14T21:50:58.866Z,11.00
2023-09-14T21:53:25.651Z,10.90
2023-09-14T21:55:52.364Z,10.90
2023-09-14T21:58:19.111Z,10.90
2023-09-14T22:00:46.691Z,10.90
2023-09-14T22:03:13.594Z,10.90
2023-09-14T22:05:40.320Z,10.80
2023-09-14T22:08:08.129Z,10.90
2023-09-14T22:10:36.412Z,10.90
2023-09-14T22:13:04.659Z,10.80
2023-09-14T22:15:33.528Z,10.80
2023-09-14T22:18:00.727Z,10.80
2023-09-14T22:20:27.490Z,10.80
2023-09-14T22:22:54.270Z,10.70
2023-09-14T22:25:21.806Z,10.70
2023-09-14T22:27:49.081Z,10.60
2023-09-14T22:30:17.582Z,10.60
2023-09-14T22:32:44.632Z,10.60
2023-09-14T22:35:11.350Z,10.50
2023-09-14T22:37:49.244Z,10.60
2023-09-14T22:40:17.710Z,10.60
2023-09-14T22:42:45.326Z,10.50
2023-09-14T22:45:12.227Z,10.50
2023-09-14T22:47:39.122Z,10.50
2023-09-14T22:50:08.010Z,10.50
2023-09-14T22:52:35.272Z,10.40
2023-09-14T22:55:02.987Z,10.40
2023-09-14T22:57:29.745Z,10.40
2023-09-14T22:59:57.164Z,10.30
2023-09-14T23:02:23.929Z,10.30
2023-09-14T23:04:50.659Z,10.30
2023-09-14T23:07:17.426Z,10.20
2023-09-14T23:09:44.777Z,10.20
2023-09-14T23:12:11.592Z,10.20
2023-09-14T23:14:42.269Z,10.20
2023-09-14T23:17:09.799Z,10.20
2023-09-14T23:19:36.556Z,10.20
2023-09-14T23:22:03.536Z,10.10
2023-09-14T23:24:31.088Z,10.20
2023-09-14T23:26:57.963Z,10.10
2023-09-14T23:29:24.933Z,10.10
2023-09-14T23:31:52.853Z,10.10
2023-09-14T23:34:22.281Z,10.10
2023-09-14T23:36:48.970Z,10.10
2023-09-14T23:39:18.275Z,10.10
2023-09-14T23:41:45.743Z,10.10
2023-09-14T23:44:15.306Z,10.00
2023-09-14T23:46:42.733Z,10.00
2023-09-14T23:49:13.091Z,9.90
2023-09-14T23:51:42.546Z,9.90
2023-09-14T23:54:11.424Z,9.90
2023-09-14T23:56:38.911Z,9.80
2023-09-14T23:59:08.621Z,9.80
